Accueil
METAR-TAF:

METAR-TAF

Aéroports :

Passo Rolle, Italie

latitude: 46-18N, longitude: 011-47E, altitude: 2004 m

Observation

Le bulletin a été fait il y a 39 minutes, à 05:55 UTC
Vent 6 kt de nord avec des rafales jusqu'à 16 kt
Température 3°C
Humidité 48%
Pression 1016 hPa
Visibilité 10 km ou plus

METAR: LIVR 240555Z 35006G16KT 9999 03/M07 Q1016 RMK SCT SCT170 MON LIB VIS MIN 9999

Heure: 07:34 (06:34 UTC)


TAF: absent

Observations et prévisions météorologiques de plus de 4000 aéroports (messages METAR et TAF).

Les stations disponibles sont représentées par des disques jaunes et rouges sur la carte.

Passer la souris dessus pour voir le nom de la station.

Cliquer dessus pour voir les observations et prévisions météorologiques.

Pour changer de carte: cliquez sur les boutons verts avec une croix noire pour zoomer, sur le bouton vert avec un tiret pour effectuer un zoom arrière, ou sur les flèches vertes pour les cartes adjacentes.


METAR-TAF: